Saturday, July 30, 2016, 7:03 AM EDT

KPTB, Petersburg, Dinwiddie County Airport

Location: Petersburg, VA, United States Lat: 37.183
Local Time: 7:03 AM EDT (11:03 GMT) Lon: -77.517
Time Zone: US/Eastern Elev: 193 ft

Show me the last for .
Show Decoded

2016-07-30 06:35 METAR KPTB 301035Z AUTO 00000KT 5SM HZ CLR A2998 RMK AO2 =
2016-07-30 06:15 METAR KPTB 301015Z AUTO 00000KT 4SM HZ CLR A2997 RMK AO2 =
2016-07-30 05:55 METAR KPTB 300955Z AUTO 00000KT 1SM BR VV007 A2995 RMK AO2 VIS 1/2V3 =
2016-07-30 05:35 METAR KPTB 300935Z AUTO 00000KT 3/4SM BR VV005 A2995 RMK AO2 =
2016-07-30 05:15 METAR KPTB 300915Z AUTO 00000KT 10SM CLR A2995 RMK AO2 =
2016-07-30 04:55 METAR KPTB 300855Z AUTO 00000KT 1 1/4SM BR VV007 A2995 RMK AO2 VIS 3/4V5 =
2016-07-30 04:35 METAR KPTB 300835Z AUTO 00000KT 1 1/2SM BR SCT002 A2995 RMK AO2 VIS 1V5 =
2016-07-30 04:15 METAR KPTB 300815Z AUTO 00000KT 4SM HZ CLR A2994 RMK AO2 =
2016-07-30 03:55 METAR KPTB 300755Z AUTO 00000KT 2 1/2SM BR CLR A2994 RMK AO2 =
2016-07-30 03:35 METAR KPTB 300735Z AUTO 00000KT 5SM HZ CLR A2994 RMK AO2 =
2016-07-30 03:15 METAR KPTB 300715Z AUTO 00000KT 5SM HZ CLR A2995 RMK AO2 =
2016-07-30 02:55 METAR KPTB 300655Z AUTO 00000KT 7SM CLR A2995 RMK AO2 =
2016-07-30 02:35 METAR KPTB 300635Z AUTO 00000KT 7SM CLR A2995 RMK AO2 =
2016-07-30 02:15 METAR KPTB 300615Z AUTO 00000KT 10SM CLR A2996 RMK AO2 =
2016-07-30 01:55 METAR KPTB 300555Z AUTO 00000KT 10SM CLR A2996 RMK AO2 =
2016-07-30 01:35 METAR KPTB 300535Z AUTO 00000KT 10SM CLR A2996 RMK AO2 =
2016-07-30 01:15 METAR KPTB 300515Z AUTO 00000KT 7SM CLR A2996 RMK AO2 =
2016-07-30 00:55 METAR KPTB 300455Z AUTO 00000KT 7SM CLR A2996 RMK AO2 =
2016-07-30 00:35 METAR KPTB 300435Z AUTO 00000KT 10SM CLR A2996 RMK AO2 =
2016-07-30 00:15 METAR KPTB 300415Z AUTO 00000KT 7SM CLR A2996 RMK AO2 =
2016-07-29 23:55 METAR KPTB 300355Z AUTO 00000KT 7SM CLR A2996 RMK AO2 =
2016-07-29 23:35 METAR KPTB 300335Z AUTO 00000KT 7SM CLR A2997 RMK AO2 =
2016-07-29 23:15 METAR KPTB 300315Z AUTO 00000KT 10SM CLR A2997 RMK AO2 =
2016-07-29 22:55 METAR KPTB 300255Z AUTO 00000KT 7SM CLR A2996 RMK AO2 =
2016-07-29 22:35 METAR KPTB 300235Z AUTO 00000KT 10SM CLR A2996 RMK AO2 =
2016-07-29 22:15 METAR KPTB 300215Z AUTO 00000KT 10SM CLR A2995 RMK AO2 =
2016-07-29 21:55 METAR KPTB 300155Z AUTO 00000KT 10SM CLR A2995 RMK AO2 =
2016-07-29 21:35 METAR KPTB 300135Z AUTO 00000KT 10SM CLR A2994 RMK AO2 =
2016-07-29 21:15 METAR KPTB 300115Z AUTO 00000KT 10SM CLR A2993 RMK AO2 =
2016-07-29 20:55 METAR KPTB 300055Z AUTO 00000KT 10SM CLR 25/25 A2993 RMK AO2 T02450245 =
2016-07-29 20:35 METAR KPTB 300035Z AUTO 00000KT 10SM CLR 25/25 A2993 RMK AO2 T02490249 =
2016-07-29 20:15 METAR KPTB 300015Z AUTO 00000KT 10SM CLR 26/26 A2993 RMK AO2 T02560256 =
2016-07-29 19:35 METAR KPTB 292335Z AUTO 00000KT 10SM CLR 30/22 A2993 RMK AO2 T02980216 =
2016-07-29 19:15 METAR KPTB 292315Z AUTO 35003KT 10SM CLR 31/20 A2992 RMK AO2 T03060203 =
2016-07-29 18:55 METAR KPTB 292255Z AUTO 34003KT 10SM CLR 31/21 A2992 RMK AO2 T03100205 =
2016-07-29 18:35 METAR KPTB 292235Z AUTO 02006KT 10SM CLR 31/21 A2991 RMK AO2 T03110205 =
2016-07-29 18:15 METAR KPTB 292215Z AUTO 35003KT 10SM SCT080 30/21 A2992 RMK AO2 T03030211 =
2016-07-29 17:55 METAR KPTB 292155Z AUTO 29003KT 10SM CLR 31/21 A2991 RMK AO2 T03120208 =
2016-07-29 17:35 METAR KPTB 292135Z AUTO 30005KT 10SM SCT037 SCT043 32/21 A2991 RMK AO2 T03180210
                 =
2016-07-29 17:15 METAR KPTB 292115Z AUTO 29004KT 10SM CLR 32/21 A2990 RMK AO2 T03200213 =
2016-07-29 16:55 METAR KPTB 292055Z AUTO 33003KT 10SM SCT039 SCT045 32/21 A2990 RMK AO2 T03150209
                 =
2016-07-29 16:35 METAR KPTB 292035Z AUTO 28004KT 10SM BKN038 BKN045 BKN070 32/21 A2990 RMK AO2
                 T03200209 =
2016-07-29 16:15 METAR KPTB 292015Z AUTO 28003KT 10SM SCT038 BKN048 OVC070 32/21 A2990 RMK AO2
                 T03190205 =
2016-07-29 15:55 METAR KPTB 291955Z AUTO 28004KT 10SM SCT036 BKN050 31/20 A2990 RMK AO2 T03130204
                 =
2016-07-29 15:35 METAR KPTB 291935Z AUTO 27004KT 10SM SCT036 SCT065 32/21 A2990 RMK AO2 T03160211
                 =
2016-07-29 15:15 METAR KPTB 291915Z AUTO 00000KT 10SM SCT034 BKN070 31/21 A2991 RMK AO2 T03100209
                 =
2016-07-29 14:55 METAR KPTB 291855Z AUTO 28003KT 10SM SCT034 SCT041 BKN080 32/21 A2991 RMK AO2
                 T03150212 =
2016-07-29 14:35 METAR KPTB 291835Z AUTO 00000KT 10SM SCT030 SCT036 BKN041 31/21 A2991 RMK AO2
                 T03070211 =
2016-07-29 13:55 METAR KPTB 291755Z AUTO 31005KT 10SM SCT028 SCT036 BKN070 30/21 A2991 RMK AO2
                 T03010211 10302 20247 =
2016-07-29 13:35 METAR KPTB 291735Z AUTO 36005KT 10SM SCT026 BKN070 30/21 A2991 RMK AO2 T02970214
                 =
2016-07-29 13:15 METAR KPTB 291715Z AUTO 35006KT 10SM SCT024 SCT050 OVC070 30/22 A2991 RMK AO2
                 T02970216 =
2016-07-29 12:55 METAR KPTB 291655Z AUTO 36007KT 10SM SCT021 BKN050 OVC070 29/21 A2991 RMK AO2
                 T02900214 =
2016-07-29 12:35 METAR KPTB 291635Z AUTO 34007KT 10SM SCT021 BKN028 OVC046 28/22 A2991 RMK AO2
                 T02840223 =
2016-07-29 12:15 METAR KPTB 291615Z AUTO 33010KT 10SM BKN023 BKN028 OVC034 29/22 A2991 RMK AO2
                 T02850221 =
2016-07-29 11:55 METAR KPTB 291555Z AUTO 36005KT 10SM BKN025 BKN031 OVC048 28/22 A2991 RMK AO2
                 T02820220 =
2016-07-29 11:35 METAR KPTB 291535Z AUTO 35005KT 10SM SCT021 SCT026 OVC046 28/22 A2991 RMK AO2
                 T02820219 =
2016-07-29 11:15 METAR KPTB 291515Z AUTO 33007KT 10SM SCT019 BKN040 OVC055 29/22 A2991 RMK AO2
                 T02860219 =
2016-07-29 10:55 METAR KPTB 291455Z AUTO 35004KT 10SM SCT017 BKN038 OVC050 28/22 A2991 RMK AO2
                 T02810224 =
2016-07-29 10:35 METAR KPTB 291435Z AUTO 35006KT 10SM SCT015 BKN033 OVC050 28/22 A2991 RMK AO2
                 T02750224 =
2016-07-29 10:15 METAR KPTB 291415Z AUTO 33005KT 10SM SCT018 BKN025 OVC033 26/22 A2991 RMK AO2
                 T02630222 =
2016-07-29 09:55 METAR KPTB 291355Z AUTO 33007KT 10SM OVC018 26/23 A2991 RMK AO2 T02610225 =
2016-07-29 09:35 METAR KPTB 291335Z AUTO 01008KT 10SM BKN014 OVC023 26/23 A2990 RMK AO2 T02600228
                 =
2016-07-29 09:15 METAR KPTB 291315Z AUTO 32008KT 10SM BKN013 BKN021 OVC025 27/23 A2990 RMK AO2
                 T02650229 =
2016-07-29 08:55 METAR KPTB 291255Z AUTO 32007KT 10SM BKN013 BKN019 OVC025 26/23 A2989 RMK AO2
                 T02640232 =
2016-07-29 08:35 METAR KPTB 291235Z AUTO 32006KT 10SM BKN013 OVC019 26/23 A2988 RMK AO2 T02600231
                 =
2016-07-29 08:15 METAR KPTB 291215Z AUTO 30003KT 10SM BKN009 OVC016 25/24 A2988 RMK AO2 T02540239
                 =
2016-07-29 07:55 METAR KPTB 291155Z AUTO 32006KT 10SM OVC007 25/25 A2987 RMK AO2 T02470247 =
2016-07-29 07:35 METAR KPTB 291135Z AUTO 31006KT 10SM OVC007 25/25 A2987 RMK AO2 T02450245 =
2016-07-29 07:15 METAR KPTB 291115Z AUTO 28006KT 10SM OVC007 25/25 A2986 RMK AO2 T02470247 =

Support USWX by starting your Amazon purchase here.